createdAt,value
2018-04-17T00:00:28.834Z,18.26
2018-04-17T00:01:28.877Z,18.27
2018-04-17T00:02:28.862Z,18.31
2018-04-17T00:03:28.869Z,18.29
2018-04-17T00:04:29.185Z,18.31
2018-04-17T00:05:28.897Z,18.35
2018-04-17T00:06:28.911Z,18.27
2018-04-17T00:07:28.948Z,18.26
2018-04-17T00:08:28.963Z,18.23
2018-04-17T00:09:29.070Z,18.19
2018-04-17T00:10:29.176Z,18.20
2018-04-17T00:11:28.982Z,18.16
2018-04-17T00:12:28.996Z,18.11
2018-04-17T00:13:29.035Z,18.10
2018-04-17T00:14:29.148Z,18.16
2018-04-17T00:15:29.039Z,18.13
2018-04-17T00:16:29.049Z,18.16
2018-04-17T00:17:29.090Z,18.21
2018-04-17T00:18:29.093Z,18.11
2018-04-17T00:19:29.199Z,18.08
2018-04-17T00:20:29.130Z,18.08
2018-04-17T00:21:29.148Z,18.08
2018-04-17T00:22:29.161Z,18.13
2018-04-17T00:23:29.146Z,17.99
2018-04-17T00:24:29.267Z,18.01
2018-04-17T00:25:29.201Z,18.08
2018-04-17T00:26:29.192Z,18.05
2018-04-17T00:27:29.209Z,17.96
2018-04-17T00:28:29.231Z,17.92
2018-04-17T00:29:29.529Z,17.86
2018-04-17T00:30:29.246Z,17.92
2018-04-17T00:31:29.264Z,17.83
2018-04-17T00:32:29.273Z,17.86
2018-04-17T00:33:29.284Z,17.87
2018-04-17T00:34:29.403Z,17.80
2018-04-17T00:35:29.326Z,17.77
2018-04-17T00:36:29.355Z,17.79
2018-04-17T00:37:29.354Z,17.87
2018-04-17T00:38:29.381Z,17.87
2018-04-17T00:39:29.467Z,17.90
2018-04-17T00:40:29.406Z,17.92
2018-04-17T00:41:29.407Z,17.88
2018-04-17T00:42:29.437Z,17.86
2018-04-17T00:43:29.418Z,17.87
2018-04-17T00:44:29.568Z,17.88
2018-04-17T00:45:29.454Z,17.87
2018-04-17T00:46:29.476Z,17.84
2018-04-17T00:47:29.497Z,17.73
2018-04-17T00:48:29.524Z,17.76
2018-04-17T00:49:29.605Z,17.77
2018-04-17T00:50:29.546Z,17.66
2018-04-17T00:51:29.560Z,17.74
2018-04-17T00:52:29.562Z,17.73
2018-04-17T00:53:29.560Z,17.77
2018-04-17T00:54:29.702Z,17.66
2018-04-17T00:55:29.589Z,17.74
2018-04-17T00:56:29.608Z,17.66
2018-04-17T00:57:29.626Z,17.68
2018-04-17T00:58:29.631Z,17.65
2018-04-17T00:59:29.742Z,17.69
2018-04-17T01:00:29.656Z,17.68
2018-04-17T01:01:29.700Z,17.68
2018-04-17T01:02:29.687Z,17.66
2018-04-17T01:03:29.723Z,17.68
2018-04-17T01:04:29.841Z,17.69
2018-04-17T01:05:29.723Z,17.60
2018-04-17T01:06:29.742Z,17.73
2018-04-17T01:07:29.754Z,17.69
2018-04-17T01:08:29.792Z,17.66
2018-04-17T01:09:29.781Z,17.71
2018-04-17T01:10:29.896Z,17.66
2018-04-17T01:11:29.805Z,17.63
2018-04-17T01:12:29.832Z,17.69
2018-04-17T01:13:29.833Z,17.68
2018-04-17T01:14:29.848Z,17.66
2018-04-17T01:15:29.958Z,17.79
2018-04-17T01:16:29.881Z,17.66
2018-04-17T01:17:29.892Z,17.74
2018-04-17T01:18:29.930Z,17.76
2018-04-17T01:19:29.917Z,17.66
2018-04-17T01:20:30.031Z,17.69
2018-04-17T01:21:29.939Z,17.80
2018-04-17T01:22:29.960Z,17.86
2018-04-17T01:23:29.971Z,17.84
2018-04-17T01:24:29.982Z,17.83
2018-04-17T01:25:30.146Z,17.92
2018-04-17T01:26:30.022Z,17.90
2018-04-17T01:27:30.061Z,17.95
2018-04-17T01:28:30.042Z,17.90
2018-04-17T01:29:30.083Z,17.87
2018-04-17T01:30:30.166Z,17.88
2018-04-17T01:31:30.090Z,17.86
2018-04-17T01:32:30.100Z,17.87
2018-04-17T01:33:30.105Z,17.83
2018-04-17T01:34:30.144Z,17.87
2018-04-17T01:35:30.309Z,17.86
2018-04-17T01:36:30.173Z,17.86
2018-04-17T01:37:30.187Z,17.80
2018-04-17T01:38:30.198Z,17.92
2018-04-17T01:39:30.207Z,17.84
2018-04-17T01:40:30.312Z,17.92
2018-04-17T01:41:30.240Z,17.88
2018-04-17T01:42:30.227Z,17.88
2018-04-17T01:43:30.271Z,17.86
2018-04-17T01:44:30.284Z,17.80
2018-04-17T01:45:30.368Z,17.96
2018-04-17T01:46:30.312Z,17.86
2018-04-17T01:47:30.296Z,17.84
2018-04-17T01:48:30.314Z,17.98
2018-04-17T01:49:30.323Z,17.84
2018-04-17T01:50:30.495Z,17.86
2018-04-17T01:51:30.384Z,17.90
2018-04-17T01:52:30.370Z,17.86
2018-04-17T01:53:30.380Z,17.88
2018-04-17T01:54:30.423Z,17.92
2018-04-17T01:55:30.505Z,17.87
2018-04-17T01:56:30.422Z,17.92
2018-04-17T01:57:30.439Z,17.94
2018-04-17T01:58:30.454Z,17.87
2018-04-17T01:59:30.489Z,17.95
2018-04-17T02:00:30.581Z,17.88
2018-04-17T02:01:30.496Z,17.86
2018-04-17T02:02:30.505Z,17.92
2018-04-17T02:03:30.585Z,17.86
2018-04-17T02:04:30.534Z,17.95
2018-04-17T02:05:30.647Z,17.86
2018-04-17T02:06:30.563Z,17.94
2018-04-17T02:07:30.579Z,17.87
2018-04-17T02:08:30.591Z,17.92
2018-04-17T02:09:30.619Z,17.90
2018-04-17T02:10:30.715Z,17.86
2018-04-17T02:11:30.655Z,17.88
2018-04-17T02:12:30.677Z,17.88
2018-04-17T02:13:30.686Z,17.90
2018-04-17T02:14:30.674Z,17.87
2018-04-17T02:15:30.784Z,17.83
2018-04-17T02:16:30.706Z,17.88
2018-04-17T02:17:30.740Z,17.86
2018-04-17T02:18:30.753Z,17.81
2018-04-17T02:19:30.768Z,17.83
2018-04-17T02:20:30.753Z,17.83
2018-04-17T02:21:30.871Z,17.79
2018-04-17T02:22:30.798Z,17.80
2018-04-17T02:23:30.802Z,17.76
2018-04-17T02:24:30.805Z,17.81
2018-04-17T02:25:30.823Z,17.81
2018-04-17T02:26:30.938Z,17.83
2018-04-17T02:27:30.891Z,17.83
2018-04-17T02:28:30.893Z,17.90
2018-04-17T02:29:30.910Z,17.86
2018-04-17T02:30:30.919Z,17.87
2018-04-17T02:31:31.035Z,17.88
2018-04-17T02:32:30.950Z,17.94
2018-04-17T02:33:30.959Z,17.81
2018-04-17T02:34:30.948Z,17.84
2018-04-17T02:35:30.960Z,17.92
2018-04-17T02:36:31.102Z,17.84
2018-04-17T02:37:30.993Z,17.94
2018-04-17T02:38:31.017Z,17.88
2018-04-17T02:39:31.043Z,17.83
2018-04-17T02:40:31.029Z,17.81
2018-04-17T02:41:31.168Z,17.87
2018-04-17T02:42:31.069Z,17.88
2018-04-17T02:43:31.103Z,17.84
2018-04-17T02:44:31.088Z,17.94
2018-04-17T02:45:31.101Z,17.83
2018-04-17T02:46:31.227Z,17.86
2018-04-17T02:47:31.191Z,17.88
2018-04-17T02:48:31.141Z,17.84
2018-04-17T02:49:31.166Z,17.88
2018-04-17T02:50:31.195Z,17.86
2018-04-17T02:51:31.282Z,17.87
2018-04-17T02:52:31.188Z,17.88
2018-04-17T02:53:31.223Z,17.81
2018-04-17T02:54:31.225Z,17.76
2018-04-17T02:55:31.263Z,17.87
2018-04-17T02:56:31.374Z,17.88
2018-04-17T02:57:31.271Z,17.92
2018-04-17T02:58:31.275Z,17.88
2018-04-17T02:59:31.316Z,17.88
2018-04-17T03:00:31.302Z,17.87
2018-04-17T03:01:31.442Z,17.84
2018-04-17T03:02:31.335Z,17.81
2018-04-17T03:03:31.347Z,17.80
2018-04-17T03:04:31.369Z,17.79
2018-04-17T03:05:31.370Z,17.63
2018-04-17T03:06:31.488Z,17.68
2018-04-17T03:07:31.423Z,17.68
2018-04-17T03:08:31.440Z,17.65
2018-04-17T03:09:31.465Z,17.69
2018-04-17T03:10:31.454Z,17.65
2018-04-17T03:11:31.553Z,17.62
2018-04-17T03:12:31.465Z,17.54
2018-04-17T03:13:31.483Z,17.54
2018-04-17T03:14:31.506Z,17.60
2018-04-17T03:15:31.514Z,17.57
2018-04-17T03:16:31.628Z,17.52
2018-04-17T03:17:31.551Z,17.60
2018-04-17T03:18:31.552Z,17.52
2018-04-17T03:19:31.587Z,17.55
2018-04-17T03:20:31.616Z,17.52
2018-04-17T03:21:31.736Z,17.50
2018-04-17T03:22:31.607Z,17.54
2018-04-17T03:23:31.614Z,17.55
2018-04-17T03:24:31.642Z,17.54
2018-04-17T03:25:31.670Z,17.60
2018-04-17T03:26:31.768Z,17.60
2018-04-17T03:27:31.672Z,17.71
2018-04-17T03:28:31.684Z,17.71
2018-04-17T03:29:31.698Z,17.62
2018-04-17T03:30:31.716Z,17.65
2018-04-17T03:31:31.729Z,17.66
2018-04-17T03:32:31.854Z,17.65
2018-04-17T03:33:31.756Z,17.66
2018-04-17T03:34:31.777Z,17.71
2018-04-17T03:35:31.779Z,17.62
2018-04-17T03:36:31.799Z,17.63
2018-04-17T03:37:31.936Z,17.73
2018-04-17T03:38:31.819Z,17.79
2018-04-17T03:39:31.833Z,17.68
2018-04-17T03:40:31.849Z,17.63
2018-04-17T03:41:31.891Z,17.76
2018-04-17T03:42:32.047Z,17.76
2018-04-17T03:43:31.890Z,17.69
2018-04-17T03:44:31.901Z,17.71
2018-04-17T03:45:31.941Z,17.76
2018-04-17T03:46:31.935Z,17.74
2018-04-17T03:47:32.044Z,17.79
2018-04-17T03:48:31.963Z,17.77
2018-04-17T03:49:31.977Z,17.77
2018-04-17T03:50:31.980Z,17.73
2018-04-17T03:51:31.999Z,17.79
2018-04-17T03:52:32.109Z,17.80
2018-04-17T03:53:32.031Z,17.73
2018-04-17T03:54:32.070Z,17.68
2018-04-17T03:55:32.079Z,17.66
2018-04-17T03:56:32.071Z,17.71
2018-04-17T03:57:32.228Z,17.66
2018-04-17T03:58:32.092Z,17.63
2018-04-17T03:59:32.132Z,17.69
2018-04-17T04:00:32.146Z,17.66
2018-04-17T04:01:32.161Z,17.73
2018-04-17T04:02:32.273Z,17.66
2018-04-17T04:03:32.172Z,17.79
2018-04-17T04:04:32.181Z,17.84
2018-04-17T04:05:32.188Z,17.76
2018-04-17T04:06:32.204Z,17.83
2018-04-17T04:07:32.322Z,17.86
2018-04-17T04:08:32.230Z,17.88
2018-04-17T04:09:32.264Z,17.87
2018-04-17T04:10:32.317Z,17.88
2018-04-17T04:11:32.280Z,17.88
2018-04-17T04:12:32.400Z,17.80
2018-04-17T04:13:32.323Z,17.80
2018-04-17T04:14:32.322Z,17.77
2018-04-17T04:15:32.350Z,17.80
2018-04-17T04:16:32.346Z,17.73
2018-04-17T04:17:32.467Z,17.65
2018-04-17T04:18:32.367Z,17.66
2018-04-17T04:19:32.384Z,17.73
2018-04-17T04:20:32.390Z,17.83
2018-04-17T04:21:32.437Z,17.66
2018-04-17T04:22:32.532Z,17.79
2018-04-17T04:23:32.433Z,17.79
2018-04-17T04:24:32.450Z,17.84
2018-04-17T04:25:32.460Z,17.73
2018-04-17T04:26:32.473Z,17.77
2018-04-17T04:27:32.717Z,17.81
2018-04-17T04:28:32.500Z,17.80
2018-04-17T04:29:32.549Z,17.87
2018-04-17T04:30:32.529Z,17.84
2018-04-17T04:31:32.552Z,17.87
2018-04-17T04:32:32.660Z,17.88
2018-04-17T04:33:32.599Z,17.84
2018-04-17T04:34:32.587Z,17.88
2018-04-17T04:35:32.628Z,17.87
2018-04-17T04:36:32.611Z,17.86
2018-04-17T04:37:32.754Z,17.87
2018-04-17T04:38:32.644Z,17.86
2018-04-17T04:39:32.656Z,17.80
2018-04-17T04:40:32.687Z,17.83
2018-04-17T04:41:32.709Z,17.83
2018-04-17T04:42:32.693Z,17.83
2018-04-17T04:43:32.841Z,17.79
2018-04-17T04:44:32.748Z,17.76
2018-04-17T04:45:32.744Z,17.66
2018-04-17T04:46:32.769Z,17.69
2018-04-17T04:47:32.770Z,17.62
2018-04-17T04:48:32.876Z,17.52
2018-04-17T04:49:32.816Z,17.50
2018-04-17T04:50:32.808Z,17.57
2018-04-17T04:51:32.847Z,17.52
2018-04-17T04:52:32.829Z,17.54
2018-04-17T04:53:32.945Z,17.54
2018-04-17T04:54:32.918Z,17.57
2018-04-17T04:55:32.873Z,17.45
2018-04-17T04:56:32.893Z,17.45
2018-04-17T04:57:32.897Z,17.49
2018-04-17T04:58:33.043Z,17.45
2018-04-17T04:59:33.043Z,17.52
2018-04-17T05:00:32.968Z,17.42
2018-04-17T05:01:32.961Z,17.46
2018-04-17T05:02:32.996Z,17.39
2018-04-17T05:03:33.107Z,17.40
2018-04-17T05:04:33.027Z,17.28
2018-04-17T05:05:33.007Z,17.31
2018-04-17T05:06:33.024Z,17.30
2018-04-17T05:07:33.033Z,17.32
2018-04-17T05:08:33.156Z,17.31
2018-04-17T05:09:33.063Z,17.36
2018-04-17T05:10:33.113Z,17.36
2018-04-17T05:11:33.117Z,17.35
2018-04-17T05:12:33.116Z,17.30
2018-04-17T05:13:33.216Z,17.24
2018-04-17T05:14:33.167Z,17.25
2018-04-17T05:15:33.149Z,17.22
2018-04-17T05:16:33.185Z,17.22
2018-04-17T05:17:33.174Z,17.22
2018-04-17T05:18:33.360Z,17.09
2018-04-17T05:19:33.204Z,17.18
2018-04-17T05:20:33.227Z,17.12
2018-04-17T05:21:33.226Z,17.17
2018-04-17T05:22:33.236Z,17.10
2018-04-17T05:23:33.383Z,17.06
2018-04-17T05:24:33.292Z,17.12
2018-04-17T05:25:33.305Z,17.09
2018-04-17T05:26:33.319Z,17.06
2018-04-17T05:27:33.332Z,17.02
2018-04-17T05:28:33.442Z,17.06
2018-04-17T05:29:33.342Z,16.94
2018-04-17T05:30:33.347Z,16.91
2018-04-17T05:31:33.355Z,17.00
2018-04-17T05:32:33.369Z,16.97
2018-04-17T05:33:33.495Z,16.87
2018-04-17T05:34:33.432Z,16.95
2018-04-17T05:35:33.442Z,16.95
2018-04-17T05:36:33.450Z,16.91
2018-04-17T05:37:33.439Z,16.90
2018-04-17T05:38:33.577Z,16.88
2018-04-17T05:39:33.472Z,16.88
2018-04-17T05:40:33.503Z,16.88
2018-04-17T05:41:33.526Z,16.90
2018-04-17T05:42:33.526Z,16.92
2018-04-17T05:43:33.672Z,16.84
2018-04-17T05:44:33.617Z,16.85
2018-04-17T05:45:33.570Z,16.88
2018-04-17T05:46:33.554Z,16.87
2018-04-17T05:47:33.595Z,16.90
2018-04-17T05:48:33.683Z,16.84
2018-04-17T05:49:33.641Z,16.90
2018-04-17T05:50:33.616Z,16.90
2018-04-17T05:51:33.647Z,16.88
2018-04-17T05:52:33.633Z,16.88
2018-04-17T05:53:33.662Z,16.81
2018-04-17T05:54:33.815Z,16.84
2018-04-17T05:55:33.696Z,16.84
2018-04-17T05:56:33.711Z,16.85
2018-04-17T05:57:33.700Z,16.90
2018-04-17T05:58:33.711Z,16.88
2018-04-17T05:59:33.864Z,16.88
2018-04-17T06:00:33.738Z,16.92
2018-04-17T06:01:33.779Z,16.90
2018-04-17T06:02:33.780Z,16.88
2018-04-17T06:03:33.804Z,16.99
2018-04-17T06:04:33.982Z,16.95
2018-04-17T06:05:33.817Z,16.99
2018-04-17T06:06:33.817Z,16.99
2018-04-17T06:07:33.884Z,16.91
2018-04-17T06:08:33.871Z,16.99
2018-04-17T06:09:33.992Z,16.94
2018-04-17T06:10:33.868Z,16.94
2018-04-17T06:11:33.895Z,16.95
2018-04-17T06:12:33.929Z,16.99
2018-04-17T06:13:33.907Z,17.00
2018-04-17T06:14:34.154Z,17.05
2018-04-17T06:15:33.939Z,17.09
2018-04-17T06:16:33.946Z,17.03
2018-04-17T06:17:33.978Z,17.12
2018-04-17T06:18:33.979Z,17.10
2018-04-17T06:19:34.153Z,17.07
2018-04-17T06:20:34.033Z,17.10
2018-04-17T06:21:34.010Z,17.22
2018-04-17T06:22:34.035Z,17.22
2018-04-17T06:23:34.040Z,17.13
2018-04-17T06:24:34.181Z,17.17
2018-04-17T06:25:34.065Z,17.15
2018-04-17T06:26:34.083Z,17.12
2018-04-17T06:27:34.095Z,17.13
2018-04-17T06:28:34.126Z,17.17
2018-04-17T06:29:34.255Z,17.12
2018-04-17T06:30:34.138Z,17.12
2018-04-17T06:31:34.173Z,17.09
2018-04-17T06:32:34.188Z,17.12
2018-04-17T06:33:34.212Z,17.17
2018-04-17T06:34:34.344Z,17.07
2018-04-17T06:35:34.265Z,17.10
2018-04-17T06:36:34.219Z,17.05
2018-04-17T06:37:34.253Z,17.02
2018-04-17T06:38:34.242Z,17.02
2018-04-17T06:39:34.422Z,17.05
2018-04-17T06:40:34.267Z,17.06
2018-04-17T06:41:34.306Z,17.03
2018-04-17T06:42:34.316Z,16.92
2018-04-17T06:43:34.308Z,17.05
2018-04-17T06:44:34.517Z,17.05
2018-04-17T06:45:34.333Z,17.09
2018-04-17T06:46:34.344Z,17.06
2018-04-17T06:47:34.476Z,17.07
2018-04-17T06:48:34.383Z,17.12
2018-04-17T06:49:34.537Z,17.12
2018-04-17T06:50:34.399Z,17.09
2018-04-17T06:51:34.408Z,17.06
2018-04-17T06:52:34.450Z,17.10
2018-04-17T06:53:34.444Z,17.15
2018-04-17T06:54:34.710Z,17.09
2018-04-17T06:55:34.490Z,17.09
2018-04-17T06:56:34.479Z,17.09
2018-04-17T06:57:34.489Z,17.05
2018-04-17T06:58:34.530Z,17.07
2018-04-17T06:59:34.663Z,17.09
2018-04-17T07:00:34.544Z,17.15
2018-04-17T07:01:34.539Z,17.07
2018-04-17T07:02:34.584Z,17.12
2018-04-17T07:03:34.571Z,17.12
2018-04-17T07:04:34.696Z,17.05
2018-04-17T07:05:34.594Z,17.09
2018-04-17T07:06:34.633Z,17.02
2018-04-17T07:07:34.630Z,17.05
2018-04-17T07:08:34.637Z,17.13
2018-04-17T07:09:34.758Z,17.07
2018-04-17T07:10:34.760Z,17.05
2018-04-17T07:11:34.732Z,17.07
2018-04-17T07:12:34.716Z,17.06
2018-04-17T07:13:34.699Z,17.06
2018-04-17T07:14:34.724Z,17.10
2018-04-17T07:15:34.825Z,17.06
2018-04-17T07:16:34.752Z,17.13
2018-04-17T07:17:34.755Z,17.09
2018-04-17T07:18:34.766Z,17.12
2018-04-17T07:19:34.852Z,17.07
2018-04-17T07:20:34.892Z,17.07
2018-04-17T07:21:34.839Z,17.12
2018-04-17T07:22:34.826Z,17.06
2018-04-17T07:23:34.861Z,16.97
2018-04-17T07:24:34.914Z,17.07
2018-04-17T07:25:35.001Z,16.99
2018-04-17T07:26:34.899Z,16.92
2018-04-17T07:27:34.892Z,16.99
2018-04-17T07:28:34.911Z,16.99
2018-04-17T07:29:34.907Z,16.97
2018-04-17T07:30:35.029Z,16.94
2018-04-17T07:31:34.967Z,16.97
2018-04-17T07:32:34.955Z,16.94
2018-04-17T07:33:34.972Z,16.95
2018-04-17T07:34:35.020Z,16.92
2018-04-17T07:35:35.091Z,16.87
2018-04-17T07:36:35.046Z,16.88
2018-04-17T07:37:35.015Z,16.88
2018-04-17T07:38:35.028Z,16.94
2018-04-17T07:39:35.148Z,16.88
2018-04-17T07:40:35.261Z,16.90
2018-04-17T07:41:35.097Z,16.81
2018-04-17T07:42:35.080Z,16.80
2018-04-17T07:43:35.096Z,16.91
2018-04-17T07:44:35.173Z,16.76
2018-04-17T07:45:35.249Z,16.82
2018-04-17T07:46:35.136Z,16.73
2018-04-17T07:47:35.173Z,16.77
2018-04-17T07:48:35.193Z,16.82
2018-04-17T07:49:35.176Z,16.81
2018-04-17T07:50:35.298Z,16.80
2018-04-17T07:51:35.205Z,16.76
2018-04-17T07:52:35.206Z,16.81
2018-04-17T07:53:35.401Z,16.77
2018-04-17T07:54:35.252Z,16.80
2018-04-17T07:55:35.361Z,16.76
2018-04-17T07:56:35.293Z,16.72
2018-04-17T07:57:35.278Z,16.74
2018-04-17T07:58:35.289Z,16.76
2018-04-17T07:59:35.307Z,16.73
2018-04-17T08:00:35.444Z,16.81
2018-04-17T08:01:35.358Z,16.81
2018-04-17T08:02:35.343Z,16.81
2018-04-17T08:03:35.384Z,16.82
2018-04-17T08:04:35.394Z,16.74
2018-04-17T08:05:35.492Z,16.82
2018-04-17T08:06:35.408Z,16.80
2018-04-17T08:07:35.436Z,16.81
2018-04-17T08:08:35.436Z,16.82
2018-04-17T08:09:35.441Z,16.76
2018-04-17T08:10:35.544Z,16.77
2018-04-17T08:11:35.472Z,16.90
2018-04-17T08:12:35.472Z,16.85
2018-04-17T08:13:35.483Z,16.82
2018-04-17T08:14:35.523Z,16.73
2018-04-17T08:15:35.711Z,16.81
2018-04-17T08:16:35.591Z,16.80
2018-04-17T08:17:35.671Z,16.74
2018-04-17T08:18:35.624Z,16.80
2018-04-17T08:19:35.639Z,16.76
2018-04-17T08:20:35.824Z,16.74
2018-04-17T08:21:35.691Z,16.80
2018-04-17T08:22:35.700Z,16.70
2018-04-17T08:23:35.687Z,16.81
2018-04-17T08:24:35.699Z,16.74
2018-04-17T08:25:35.715Z,16.76
2018-04-17T08:26:35.840Z,16.77
2018-04-17T08:27:35.767Z,16.76
2018-04-17T08:28:35.779Z,16.70
2018-04-17T08:29:35.770Z,16.70
2018-04-17T08:30:35.779Z,16.76
2018-04-17T08:31:35.860Z,16.73
2018-04-17T08:32:35.774Z,16.80
2018-04-17T08:33:35.763Z,16.73
2018-04-17T08:34:35.782Z,16.66
2018-04-17T08:35:35.796Z,16.70
2018-04-17T08:36:35.901Z,16.80
2018-04-17T08:37:35.843Z,16.82
2018-04-17T08:38:35.836Z,16.81
2018-04-17T08:39:35.845Z,16.81
2018-04-17T08:40:35.851Z,16.72
2018-04-17T08:41:35.991Z,16.84
2018-04-17T08:42:35.905Z,16.84
2018-04-17T08:43:35.898Z,16.76
2018-04-17T08:44:35.960Z,16.76
2018-04-17T08:45:35.948Z,16.82
2018-04-17T08:46:36.056Z,16.73
2018-04-17T08:47:35.948Z,16.81
2018-04-17T08:48:35.956Z,16.70
2018-04-17T08:49:35.978Z,16.70
2018-04-17T08:50:35.999Z,16.73
2018-04-17T08:51:36.096Z,16.73
2018-04-17T08:52:36.034Z,16.74
2018-04-17T08:53:36.031Z,16.81
2018-04-17T08:54:36.035Z,16.76
2018-04-17T08:55:36.059Z,16.65
2018-04-17T08:56:36.167Z,16.73
2018-04-17T08:57:36.082Z,16.70
2018-04-17T08:58:36.102Z,16.74
2018-04-17T08:59:36.147Z,16.77
2018-04-17T09:00:36.121Z,16.74
2018-04-17T09:01:36.282Z,16.72
2018-04-17T09:02:36.141Z,16.67
2018-04-17T09:03:36.164Z,16.70
2018-04-17T09:04:36.165Z,16.81
2018-04-17T09:05:36.173Z,16.66
2018-04-17T09:06:36.299Z,16.69
2018-04-17T09:07:36.233Z,16.59
2018-04-17T09:08:36.248Z,16.74
2018-04-17T09:09:36.238Z,16.72
2018-04-17T09:10:36.245Z,16.65
2018-04-17T09:11:36.368Z,16.66
2018-04-17T09:12:36.276Z,16.62
2018-04-17T09:13:36.313Z,16.72
2018-04-17T09:14:36.299Z,16.72
2018-04-17T09:15:36.333Z,16.73
2018-04-17T09:16:36.501Z,16.72
2018-04-17T09:17:36.363Z,16.62
2018-04-17T09:18:36.350Z,16.70
2018-04-17T09:19:36.392Z,16.66
2018-04-17T09:20:36.432Z,16.72
2018-04-17T09:21:36.572Z,16.59
2018-04-17T09:22:36.510Z,16.65
2018-04-17T09:23:36.473Z,16.72
2018-04-17T09:24:36.425Z,16.63
2018-04-17T09:25:36.449Z,16.77
2018-04-17T09:26:36.567Z,16.72
2018-04-17T09:27:36.482Z,16.72
2018-04-17T09:28:36.485Z,16.76
2018-04-17T09:29:36.516Z,16.73
2018-04-17T09:30:36.504Z,16.76
2018-04-17T09:31:36.615Z,16.74
2018-04-17T09:32:36.556Z,16.73
2018-04-17T09:33:36.556Z,16.74
2018-04-17T09:34:36.581Z,16.74
2018-04-17T09:35:36.568Z,16.76
2018-04-17T09:36:36.736Z,16.76
2018-04-17T09:37:36.595Z,16.74
2018-04-17T09:38:36.609Z,16.70
2018-04-17T09:39:36.631Z,16.73
2018-04-17T09:40:36.660Z,16.81
2018-04-17T09:41:36.767Z,16.81
2018-04-17T09:42:36.689Z,16.90
2018-04-17T09:43:36.699Z,16.77
2018-04-17T09:44:36.708Z,16.90
2018-04-17T09:45:36.703Z,16.90
2018-04-17T09:46:36.817Z,16.92
2018-04-17T09:47:36.755Z,16.88
2018-04-17T09:48:36.755Z,16.87
2018-04-17T09:49:36.755Z,16.90
2018-04-17T09:50:36.816Z,16.92
2018-04-17T09:51:36.883Z,16.91
2018-04-17T09:52:36.788Z,16.94
2018-04-17T09:53:36.805Z,16.95
2018-04-17T09:54:36.853Z,16.97
2018-04-17T09:55:36.847Z,16.99
2018-04-17T09:56:36.944Z,16.95
2018-04-17T09:57:36.920Z,16.94
2018-04-17T09:58:36.887Z,16.95
2018-04-17T09:59:36.900Z,16.91
2018-04-17T10:00:36.911Z,16.92
2018-04-17T10:01:37.086Z,16.97
2018-04-17T10:02:36.952Z,16.99
2018-04-17T10:03:37.022Z,16.95
2018-04-17T10:04:36.978Z,16.92
2018-04-17T10:05:36.968Z,17.00
2018-04-17T10:06:37.076Z,17.05
2018-04-17T10:07:36.990Z,17.07
2018-04-17T10:08:37.016Z,17.22
2018-04-17T10:09:37.025Z,17.13
2018-04-17T10:10:37.031Z,17.22
2018-04-17T10:11:37.168Z,17.36
2018-04-17T10:12:37.074Z,17.36
2018-04-17T10:13:37.075Z,17.52
2018-04-17T10:14:37.143Z,17.71
2018-04-17T10:15:37.135Z,17.74
2018-04-17T10:16:37.215Z,17.88
2018-04-17T10:17:37.151Z,17.94
2018-04-17T10:18:37.157Z,18.05
2018-04-17T10:19:37.187Z,18.06
2018-04-17T10:20:37.172Z,18.26
2018-04-17T10:21:37.282Z,18.31
2018-04-17T10:22:37.227Z,18.26
2018-04-17T10:23:37.242Z,18.39
2018-04-17T10:24:37.272Z,18.41
2018-04-17T10:25:37.240Z,18.51
2018-04-17T10:26:37.354Z,18.49
2018-04-17T10:27:37.303Z,18.59
2018-04-17T10:28:37.286Z,18.61
2018-04-17T10:29:37.342Z,18.65
2018-04-17T10:30:37.323Z,18.74
2018-04-17T10:31:37.431Z,18.65
2018-04-17T10:32:37.345Z,18.69
2018-04-17T10:33:37.393Z,18.76
2018-04-17T10:34:37.411Z,18.82
2018-04-17T10:35:37.390Z,18.82
2018-04-17T10:36:37.533Z,18.84
2018-04-17T10:37:37.423Z,18.87
2018-04-17T10:38:37.433Z,18.94
2018-04-17T10:39:37.487Z,19.05
2018-04-17T10:40:37.492Z,19.00
2018-04-17T10:41:37.608Z,19.12
2018-04-17T10:42:37.502Z,19.17
2018-04-17T10:43:37.512Z,19.16
2018-04-17T10:44:37.589Z,19.23
2018-04-17T10:45:37.568Z,19.27
2018-04-17T10:46:37.668Z,19.24
2018-04-17T10:47:37.603Z,19.23
2018-04-17T10:48:37.616Z,19.24
2018-04-17T10:49:37.667Z,19.24
2018-04-17T10:50:37.626Z,19.35
2018-04-17T10:51:37.747Z,19.50
2018-04-17T10:52:37.655Z,19.46
2018-04-17T10:53:37.688Z,19.57
2018-04-17T10:54:37.693Z,19.67
2018-04-17T10:55:37.726Z,19.74
2018-04-17T10:56:37.828Z,19.80
2018-04-17T10:57:37.731Z,19.93
2018-04-17T10:58:37.778Z,20.01
2018-04-17T10:59:37.790Z,19.95
2018-04-17T11:00:37.813Z,20.10
2018-04-17T11:01:37.905Z,19.98
2018-04-17T11:02:37.826Z,19.87
2018-04-17T11:03:37.833Z,19.79
2018-04-17T11:04:37.903Z,19.67
2018-04-17T11:05:37.863Z,19.82
2018-04-17T11:06:38.013Z,19.90
2018-04-17T11:07:37.893Z,19.89
2018-04-17T11:08:37.942Z,19.98
2018-04-17T11:09:37.983Z,20.00
2018-04-17T11:10:37.975Z,20.04
2018-04-17T11:11:38.092Z,20.10
2018-04-17T11:12:38.007Z,20.23
2018-04-17T11:13:38.023Z,20.27
2018-04-17T11:14:38.096Z,20.34
2018-04-17T11:15:38.031Z,20.30
2018-04-17T11:16:38.147Z,20.26
2018-04-17T11:17:38.087Z,20.12
2018-04-17T11:18:38.102Z,20.11
2018-04-17T11:19:38.121Z,20.15
2018-04-17T11:20:38.143Z,20.08
2018-04-17T11:21:38.249Z,19.97
2018-04-17T11:22:38.173Z,20.12
2018-04-17T11:23:38.176Z,20.10
2018-04-17T11:24:38.243Z,20.18
2018-04-17T11:25:38.225Z,20.18
2018-04-17T11:26:38.323Z,20.18
2018-04-17T11:27:38.256Z,20.20
2018-04-17T11:28:38.249Z,20.15
2018-04-17T11:29:38.278Z,20.08
2018-04-17T11:30:39.297Z,19.95
2018-04-17T11:31:38.408Z,19.98
2018-04-17T11:32:38.320Z,20.05
2018-04-17T11:33:38.326Z,19.97
2018-04-17T11:34:38.423Z,20.02
2018-04-17T11:35:38.392Z,20.01
2018-04-17T11:36:38.490Z,19.98
2018-04-17T11:37:38.424Z,19.86
2018-04-17T11:38:38.447Z,19.92
2018-04-17T11:39:38.460Z,19.87
2018-04-17T11:40:38.453Z,19.92
2018-04-17T11:41:38.592Z,19.89
2018-04-17T11:42:38.497Z,19.89
2018-04-17T11:43:38.498Z,19.97
2018-04-17T11:44:38.546Z,20.01
2018-04-17T11:45:38.537Z,20.12
2018-04-17T11:46:38.665Z,20.19
2018-04-17T11:47:38.567Z,20.34
2018-04-17T11:48:38.625Z,20.22
2018-04-17T11:49:38.639Z,20.29
2018-04-17T11:50:38.616Z,20.37
2018-04-17T11:51:38.745Z,20.37
2018-04-17T11:52:38.655Z,20.32
2018-04-17T11:53:38.673Z,20.51
2018-04-17T11:54:38.774Z,20.54
2018-04-17T11:55:38.730Z,20.60
2018-04-17T11:56:38.818Z,20.58
2018-04-17T11:57:38.768Z,20.57
2018-04-17T11:58:38.759Z,20.56
2018-04-17T11:59:38.788Z,20.46
2018-04-17T12:00:38.814Z,20.29
2018-04-17T12:01:38.932Z,20.44
2018-04-17T12:02:38.852Z,20.29
2018-04-17T12:03:38.863Z,20.11
2018-04-17T12:04:38.857Z,20.16
2018-04-17T12:05:38.875Z,20.20
2018-04-17T12:06:38.987Z,20.29
2018-04-17T12:07:38.909Z,20.35
2018-04-17T12:08:38.946Z,20.48
2018-04-17T12:09:38.958Z,20.40
2018-04-17T12:10:38.954Z,20.57
2018-04-17T12:11:39.072Z,20.79
2018-04-17T12:12:38.990Z,21.01
2018-04-17T12:13:39.036Z,21.12
2018-04-17T12:14:39.121Z,21.16
2018-04-17T12:15:39.051Z,21.30
2018-04-17T12:16:39.171Z,21.19
2018-04-17T12:17:39.078Z,21.33
2018-04-17T12:18:39.103Z,21.46
2018-04-17T12:19:39.139Z,21.37
2018-04-17T12:20:39.165Z,21.37
2018-04-17T12:21:39.287Z,21.37
2018-04-17T12:22:39.201Z,21.37
2018-04-17T12:23:39.193Z,21.38
2018-04-17T12:24:39.295Z,21.34
2018-04-17T12:25:39.252Z,21.33
2018-04-17T12:26:39.347Z,21.28
2018-04-17T12:27:39.265Z,21.16
2018-04-17T12:28:39.284Z,21.15
2018-04-17T12:29:39.339Z,21.27
2018-04-17T12:30:39.316Z,21.33
2018-04-17T12:31:39.477Z,21.28
2018-04-17T12:32:39.351Z,21.33
2018-04-17T12:33:39.396Z,21.36
2018-04-17T12:34:39.481Z,21.55
2018-04-17T12:35:39.435Z,21.61
2018-04-17T12:36:39.547Z,21.78
2018-04-17T12:37:39.471Z,22.02
2018-04-17T12:38:39.518Z,22.00
2018-04-17T12:39:39.483Z,22.18
2018-04-17T12:40:39.498Z,22.24
2018-04-17T12:41:39.652Z,22.26
2018-04-17T12:42:39.538Z,22.36
2018-04-17T12:43:39.586Z,22.23
2018-04-17T12:44:39.584Z,22.14
2018-04-17T12:45:39.593Z,22.02
2018-04-17T12:46:39.753Z,21.97
2018-04-17T12:47:39.640Z,22.08
2018-04-17T12:48:39.657Z,22.16
2018-04-17T12:49:39.729Z,22.15
2018-04-17T12:50:39.685Z,22.27
2018-04-17T12:51:39.839Z,22.27
2018-04-17T12:52:39.733Z,22.24